createdAt,value
2023-01-27T00:01:34.533Z,32.42
2023-01-27T00:06:36.884Z,31.08
2023-01-27T00:11:57.886Z,29.60
2023-01-27T00:17:00.309Z,35.83
2023-01-27T00:22:21.350Z,28.13
2023-01-27T00:27:24.228Z,29.67
2023-01-27T00:32:45.327Z,28.27
2023-01-27T00:37:48.115Z,29.55
2023-01-27T00:42:50.529Z,29.87
2023-01-27T00:47:53.375Z,27.83
2023-01-27T00:52:57.978Z,21.73
2023-01-27T00:58:01.421Z,34.42
2023-01-27T01:03:03.910Z,25.15
2023-01-27T01:08:06.515Z,36.53
2023-01-27T01:13:11.916Z,40.10
2023-01-27T01:18:14.995Z,26.55
2023-01-27T01:23:17.536Z,24.92
2023-01-27T01:28:20.684Z,23.80
2023-01-27T01:33:23.384Z,23.05
2023-01-27T01:38:25.876Z,22.80
2023-01-27T01:43:28.428Z,22.50
2023-01-27T01:48:43.848Z,24.73
2023-01-27T01:53:58.781Z,22.50
2023-01-27T01:59:05.350Z,23.85
2023-01-27T02:04:20.092Z,21.10
2023-01-27T02:09:22.781Z,22.27
2023-01-27T02:14:25.467Z,22.15
2023-01-27T02:19:56.302Z,23.48
2023-01-27T02:25:07.465Z,21.27
2023-01-27T02:30:10.797Z,20.73
2023-01-27T02:35:17.223Z,19.55
2023-01-27T02:40:20.649Z,21.80
2023-01-27T02:45:23.336Z,23.15
2023-01-27T02:50:25.932Z,22.52
2023-01-27T02:55:28.442Z,22.87
2023-01-27T03:00:31.135Z,24.08
2023-01-27T03:05:33.531Z,23.48
2023-01-27T03:10:36.278Z,23.08
2023-01-27T03:15:57.336Z,24.17
2023-01-27T03:21:05.795Z,22.33
2023-01-27T03:26:10.270Z,23.55
2023-01-27T03:31:22.107Z,23.98
2023-01-27T03:36:46.818Z,23.80
2023-01-27T03:42:08.475Z,22.55
2023-01-27T03:47:12.185Z,22.77
2023-01-27T03:52:14.546Z,20.65
2023-01-27T03:57:17.247Z,23.20
2023-01-27T04:02:38.829Z,16.73
2023-01-27T04:07:41.450Z,25.27
2023-01-27T04:17:47.242Z,27.08
2023-01-27T04:22:49.663Z,32.88
2023-01-27T04:27:55.310Z,31.08
2023-01-27T04:32:57.982Z,26.98
2023-01-27T04:38:00.658Z,25.90
2023-01-27T04:43:03.378Z,28.57
2023-01-27T04:48:06.856Z,27.83
2023-01-27T04:53:09.194Z,32.20
2023-01-27T04:58:13.324Z,34.78
2023-01-27T05:03:15.817Z,31.13
2023-01-27T05:08:18.275Z,26.88
2023-01-27T05:13:20.584Z,27.30
2023-01-27T05:18:22.951Z,28.52
2023-01-27T05:23:37.314Z,28.65
2023-01-27T05:28:42.060Z,30.88
2023-01-27T05:33:45.277Z,32.95
2023-01-27T05:38:48.013Z,34.25
2023-01-27T05:43:54.876Z,32.43
2023-01-27T05:49:05.349Z,30.75
2023-01-27T05:54:08.698Z,36.05
2023-01-27T05:59:11.586Z,56.65
2023-01-27T06:04:14.001Z,52.57
2023-01-27T06:09:16.397Z,93.25
2023-01-27T06:14:19.835Z,34.05
2023-01-27T06:19:22.385Z,28.02
2023-01-27T06:24:24.844Z,27.80
2023-01-27T06:29:27.411Z,25.60
2023-01-27T06:34:29.948Z,26.63
2023-01-27T06:39:35.195Z,42.38
2023-01-27T06:44:37.528Z,31.25
2023-01-27T06:49:39.963Z,27.40
2023-01-27T06:54:42.308Z,22.83
2023-01-27T06:59:44.696Z,22.33
2023-01-27T07:04:47.126Z,21.45
2023-01-27T07:09:52.655Z,27.95
2023-01-27T07:14:55.359Z,27.23
2023-01-27T07:19:57.775Z,21.25
2023-01-27T07:25:00.233Z,25.60
2023-01-27T07:30:03.912Z,26.45
2023-01-27T07:35:07.881Z,27.08
2023-01-27T07:40:11.141Z,23.75
2023-01-27T07:45:13.531Z,27.27
2023-01-27T07:50:16.374Z,26.08
2023-01-27T07:55:18.709Z,17.47
2023-01-27T08:00:22.025Z,36.70
2023-01-27T08:05:24.722Z,32.00
2023-01-27T08:10:27.249Z,17.40
2023-01-27T08:15:29.648Z,20.75
2023-01-27T08:20:32.727Z,24.20
2023-01-27T08:25:35.307Z,13.48
2023-01-27T08:30:37.688Z,15.70
2023-01-27T08:35:44.672Z,15.88
2023-01-27T08:40:47.675Z,18.65
2023-01-27T08:50:56.339Z,23.00
2023-01-27T08:56:02.285Z,17.33
2023-01-27T09:01:06.055Z,20.73
2023-01-27T09:06:10.412Z,17.27
2023-01-27T09:11:15.644Z,18.38
2023-01-27T09:16:18.084Z,16.70
2023-01-27T09:21:20.695Z,19.35
2023-01-27T09:26:23.303Z,19.45
2023-01-27T09:31:25.738Z,19.25
2023-01-27T09:36:28.214Z,26.58
2023-01-27T09:41:45.726Z,27.58
2023-01-27T09:47:13.331Z,37.75
2023-01-27T09:52:46.809Z,32.17
2023-01-27T09:57:53.269Z,27.67
2023-01-27T10:03:36.982Z,25.42
2023-01-27T10:09:32.829Z,23.52
2023-01-27T10:14:53.432Z,18.73
2023-01-27T10:20:34.309Z,18.10
2023-01-27T10:25:45.257Z,20.60
2023-01-27T10:31:28.283Z,23.88
2023-01-27T10:36:48.674Z,22.90
2023-01-27T10:42:01.863Z,20.23
2023-01-27T10:47:15.389Z,20.65
2023-01-27T10:52:32.086Z,20.92
2023-01-27T10:57:41.573Z,19.65
2023-01-27T11:02:54.583Z,20.10
2023-01-27T11:08:01.454Z,22.85
2023-01-27T11:13:05.236Z,23.77
2023-01-27T11:18:15.558Z,20.15
2023-01-27T11:23:20.479Z,20.50
2023-01-27T11:28:32.453Z,17.98
2023-01-27T11:34:14.375Z,20.05
2023-01-27T11:39:18.348Z,18.80
2023-01-27T11:44:25.143Z,19.35
2023-01-27T11:49:34.445Z,17.30
2023-01-27T11:54:42.236Z,22.48
2023-01-27T11:59:48.155Z,25.73
2023-01-27T12:05:09.511Z,28.30
2023-01-27T12:10:42.504Z,27.00
2023-01-27T12:15:55.216Z,34.13
2023-01-27T12:21:00.009Z,27.60
2023-01-27T12:26:05.339Z,29.63
2023-01-27T12:31:11.802Z,31.27
2023-01-27T12:36:18.452Z,27.75
2023-01-27T12:41:26.017Z,33.67
2023-01-27T12:46:31.351Z,31.45
2023-01-27T12:51:48.963Z,24.48
2023-01-27T12:56:53.392Z,25.90
2023-01-27T13:02:02.032Z,24.92
2023-01-27T13:07:12.681Z,25.77
2023-01-27T13:12:21.122Z,21.95
2023-01-27T13:17:36.700Z,31.88
2023-01-27T13:22:52.620Z,24.67
2023-01-27T13:27:59.536Z,21.08
2023-01-27T13:33:41.278Z,24.30
2023-01-27T13:39:18.945Z,32.58
2023-01-27T13:44:39.969Z,25.85
2023-01-27T13:49:52.365Z,25.73
2023-01-27T13:54:55.214Z,27.70
2023-01-27T14:00:19.799Z,18.73
2023-01-27T14:05:37.077Z,24.35
2023-01-27T14:11:00.262Z,25.40
2023-01-27T14:16:10.062Z,19.80
2023-01-27T14:21:39.352Z,24.80
2023-01-27T14:26:57.290Z,28.85
2023-01-27T14:32:20.921Z,32.30
2023-01-27T14:37:48.731Z,33.03
2023-01-27T14:43:44.714Z,34.10
2023-01-27T14:49:10.391Z,30.98
2023-01-27T14:54:32.852Z,30.13
2023-01-27T14:59:44.742Z,39.85
2023-01-27T15:05:02.119Z,47.90
2023-01-27T15:10:28.289Z,47.25
2023-01-27T15:15:42.854Z,42.42
2023-01-27T15:20:48.676Z,39.80
2023-01-27T15:25:54.016Z,36.97
2023-01-27T15:31:26.832Z,39.38
2023-01-27T15:36:33.239Z,29.75
2023-01-27T15:41:36.885Z,31.88
2023-01-27T15:46:43.986Z,28.67
2023-01-27T15:51:48.358Z,39.70
2023-01-27T15:56:53.442Z,42.97
2023-01-27T16:02:05.712Z,46.92
2023-01-27T16:07:20.929Z,38.28
2023-01-27T16:12:23.234Z,40.03
2023-01-27T16:17:26.690Z,35.65
2023-01-27T16:22:31.892Z,37.22
2023-01-27T16:27:44.634Z,36.35
2023-01-27T16:33:06.850Z,41.08
2023-01-27T16:38:26.276Z,34.60
2023-01-27T16:43:34.013Z,34.30
2023-01-27T16:48:41.104Z,30.92
2023-01-27T16:53:53.262Z,31.73
2023-01-27T16:59:04.277Z,27.52
2023-01-27T17:04:19.744Z,24.13
2023-01-27T17:09:32.154Z,29.65
2023-01-27T17:14:38.957Z,23.98
2023-01-27T17:19:46.908Z,20.52
2023-01-27T17:24:54.241Z,22.02
2023-01-27T17:30:19.658Z,18.35
2023-01-27T17:35:25.216Z,32.88
2023-01-27T17:40:29.667Z,33.05
2023-01-27T17:45:34.454Z,33.47
2023-01-27T17:50:38.038Z,30.38
2023-01-27T17:55:40.571Z,24.50
2023-01-27T18:00:54.057Z,11.05
2023-01-27T18:11:12.627Z,14.18
2023-01-27T18:22:22.817Z,13.55
2023-01-27T18:27:33.844Z,24.27
2023-01-27T18:32:40.473Z,31.10
2023-01-27T18:37:52.666Z,28.45
2023-01-27T18:42:56.635Z,20.58
2023-01-27T18:47:59.791Z,20.77
2023-01-27T18:53:02.365Z,20.83
2023-01-27T18:58:06.518Z,24.57
2023-01-27T19:03:17.057Z,14.85
2023-01-27T19:08:22.893Z,14.52
2023-01-27T19:13:25.582Z,15.65
2023-01-27T19:18:38.166Z,19.97
2023-01-27T19:23:46.083Z,14.18
2023-01-27T19:28:56.544Z,15.80
2023-01-27T19:34:02.650Z,12.52
2023-01-27T19:39:08.125Z,10.23
2023-01-27T19:44:10.969Z,9.98
2023-01-27T19:49:18.346Z,8.40
2023-01-27T19:54:21.098Z,11.68
2023-01-27T19:59:23.697Z,9.50
2023-01-27T20:04:29.094Z,9.87
2023-01-27T20:09:31.770Z,8.60
2023-01-27T20:14:35.389Z,12.85
2023-01-27T20:19:37.883Z,7.50
2023-01-27T20:24:40.614Z,11.38
2023-01-27T20:29:45.018Z,9.70
2023-01-27T20:34:47.875Z,6.63
2023-01-27T20:39:53.631Z,10.07
2023-01-27T20:44:59.883Z,11.27
2023-01-27T20:50:05.866Z,11.63
2023-01-27T20:55:09.692Z,10.38
2023-01-27T21:00:17.328Z,15.45
2023-01-27T21:05:19.863Z,11.75
2023-01-27T21:10:23.604Z,14.20
2023-01-27T21:15:26.015Z,15.00
2023-01-27T21:20:28.381Z,29.83
2023-01-27T21:25:32.803Z,21.23
2023-01-27T21:30:35.455Z,27.95
2023-01-27T21:35:38.618Z,26.33
2023-01-27T21:40:42.306Z,28.40
2023-01-27T21:45:44.849Z,20.33
2023-01-27T21:50:51.555Z,22.25
2023-01-27T21:55:54.644Z,21.88
2023-01-27T22:00:57.130Z,22.20
2023-01-27T22:05:59.757Z,28.67
2023-01-27T22:11:07.345Z,22.25
2023-01-27T22:16:14.352Z,19.45
2023-01-27T22:21:19.733Z,20.92
2023-01-27T22:26:22.326Z,18.90
2023-01-27T22:31:24.758Z,21.65
2023-01-27T22:36:27.181Z,19.25
2023-01-27T22:41:33.351Z,16.42
2023-01-27T22:46:36.205Z,16.17
2023-01-27T22:51:38.630Z,17.60
2023-01-27T22:56:41.129Z,22.63
2023-01-27T23:01:45.169Z,20.23
2023-01-27T23:06:47.887Z,22.17
2023-01-27T23:11:50.268Z,18.20
2023-01-27T23:16:53.119Z,18.15
2023-01-27T23:21:55.592Z,16.20
2023-01-27T23:26:57.974Z,17.65
2023-01-27T23:32:00.529Z,16.73
2023-01-27T23:37:03.381Z,15.15
2023-01-27T23:42:05.992Z,18.83
2023-01-27T23:47:08.646Z,19.27
2023-01-27T23:52:11.088Z,15.27
2023-01-27T23:57:13.530Z,14.48
